TROJ34 YSRI-YSRI
Flight info
| Callsign | TROJ34 |
|---|---|
| Flight time | 0h 43m |
| Altitude | 6000 |
| Route | YSSY |
| Aircraft | C130/M-SDE2E3FGRY/H |
Departure
| Time | 2026-05-04 07:24 |
|---|---|
| Airport | RAAF Base Richmond (YSRI) |
Arrival
| Time | 2026-05-04 08:08 |
|---|---|
| Airport | RAAF Base Richmond (YSRI) |
| Time | Latitude | Longitude | Altitude | Speed | Heading |
|---|---|---|---|---|---|
| 2026-05-04 07:19 | -33.60408 | 150.79111 | 53 ft | 0 kts | 205° |
| 2026-05-04 07:22 | -33.60515 | 150.79233 | 54 ft | 13 kts | 154° |
| 2026-05-04 07:22 | -33.60596 | 150.79282 | 49 ft | 16 kts | 126° |
| 2026-05-04 07:23 | -33.60673 | 150.79325 | 49 ft | 15 kts | 198° |
| 2026-05-04 07:23 | -33.60703 | 150.79225 | 55 ft | 15 kts | 285° |
| 2026-05-04 07:23 | -33.60635 | 150.79014 | 54 ft | 54 kts | 291° |
| 2026-05-04 07:23 | -33.60449 | 150.78223 | 102 ft | 137 kts | 290° |
| 2026-05-04 07:24 | -33.60114 | 150.76970 | 394 ft | 177 kts | 290° |
| 2026-05-04 07:24 | -33.59733 | 150.75388 | 577 ft | 218 kts | 282° |
| 2026-05-04 07:24 | -33.60044 | 150.73593 | 613 ft | 228 kts | 233° |
| 2026-05-04 07:24 | -33.61414 | 150.72928 | 689 ft | 220 kts | 169° |
| 2026-05-04 07:25 | -33.62585 | 150.73939 | 702 ft | 210 kts | 113° |
| 2026-05-04 07:26 | -33.62904 | 150.83647 | 902 ft | 134 kts | 360° |
| 2026-05-04 07:27 | -33.62049 | 150.83218 | 746 ft | 140 kts | 322° |
| 2026-05-04 07:27 | -33.61525 | 150.82226 | 649 ft | 141 kts | 297° |
| 2026-05-04 07:27 | -33.61196 | 150.81146 | 397 ft | 134 kts | 289° |
| 2026-05-04 07:27 | -33.60932 | 150.80095 | 249 ft | 133 kts | 291° |
| 2026-05-04 07:28 | -33.60668 | 150.79086 | 73 ft | 120 kts | 291° |
| 2026-05-04 07:28 | -33.60444 | 150.78220 | 65 ft | 112 kts | 286° |
| 2026-05-04 07:28 | -33.60183 | 150.77113 | 450 ft | 151 kts | 290° |
| 2026-05-04 07:28 | -33.59898 | 150.75862 | 1269 ft | 154 kts | 291° |
| 2026-05-04 07:29 | -33.59603 | 150.74459 | 1539 ft | 203 kts | 276° |
| 2026-05-04 07:29 | -33.60159 | 150.72891 | 1580 ft | 221 kts | 223° |
| 2026-05-04 07:29 | -33.61637 | 150.72407 | 1498 ft | 228 kts | 169° |
| 2026-05-04 07:29 | -33.62883 | 150.73431 | 1415 ft | 218 kts | 120° |
| 2026-05-04 07:30 | -33.63456 | 150.75045 | 1497 ft | 206 kts | 109° |
| 2026-05-04 07:30 | -33.63996 | 150.76644 | 1372 ft | 207 kts | 112° |
| 2026-05-04 07:30 | -33.64566 | 150.78151 | 1316 ft | 193 kts | 109° |
| 2026-05-04 07:30 | -33.65060 | 150.79567 | 1352 ft | 175 kts | 107° |
| 2026-05-04 07:31 | -33.65351 | 150.80881 | 1289 ft | 153 kts | 82° |
| 2026-05-04 07:31 | -33.65023 | 150.81962 | 1279 ft | 126 kts | 45° |
| 2026-05-04 07:33 | -33.60960 | 150.80196 | 277 ft | 125 kts | 287° |
| 2026-05-04 07:33 | -33.60709 | 150.79229 | 106 ft | 122 kts | 283° |
| 2026-05-04 07:33 | -33.60474 | 150.78335 | 68 ft | 101 kts | 285° |
| 2026-05-04 07:33 | -33.60243 | 150.77428 | 110 ft | 142 kts | 290° |
| 2026-05-04 07:34 | -33.59906 | 150.76141 | 457 ft | 181 kts | 291° |
| 2026-05-04 07:34 | -33.59489 | 150.74594 | 791 ft | 206 kts | 291° |
| 2026-05-04 07:34 | -33.59392 | 150.72949 | 1103 ft | 196 kts | 256° |
| 2026-05-04 07:34 | -33.60150 | 150.71666 | 1465 ft | 196 kts | 218° |
| 2026-05-04 07:35 | -33.61474 | 150.71144 | 1548 ft | 209 kts | 178° |
| 2026-05-04 07:35 | -33.62704 | 150.71820 | 1617 ft | 192 kts | 127° |
| 2026-05-04 07:35 | -33.63228 | 150.73302 | 1637 ft | 196 kts | 108° |
| 2026-05-04 07:35 | -33.63670 | 150.74854 | 1432 ft | 195 kts | 105° |
| 2026-05-04 07:36 | -33.64076 | 150.76406 | 1397 ft | 194 kts | 102° |
| 2026-05-04 07:36 | -33.64446 | 150.77943 | 1410 ft | 190 kts | 101° |
| 2026-05-04 07:38 | -33.65204 | 150.87999 | 1701 ft | 178 kts | 86° |
| 2026-05-04 07:38 | -33.65227 | 150.89481 | 1819 ft | 175 kts | 87° |
| 2026-05-04 07:38 | -33.65309 | 150.90907 | 1873 ft | 177 kts | 89° |
| 2026-05-04 07:38 | -33.65345 | 150.92419 | 1837 ft | 179 kts | 73° |
| 2026-05-04 07:39 | -33.64832 | 150.93742 | 1808 ft | 176 kts | 45° |
| 2026-05-04 07:39 | -33.63854 | 150.94584 | 1812 ft | 171 kts | 18° |
| 2026-05-04 07:39 | -33.62730 | 150.94760 | 2026 ft | 157 kts | 349° |
| 2026-05-04 07:39 | -33.61796 | 150.94187 | 2171 ft | 154 kts | 318° |
| 2026-05-04 07:40 | -33.61031 | 150.93211 | 1920 ft | 175 kts | 315° |
| 2026-05-04 07:40 | -33.60448 | 150.91903 | 1801 ft | 189 kts | 280° |
| 2026-05-04 07:40 | -33.60826 | 150.90344 | 1560 ft | 211 kts | 235° |
| 2026-05-04 07:40 | -33.62084 | 150.89449 | 1531 ft | 217 kts | 190° |
| 2026-05-04 07:41 | -33.63465 | 150.89940 | 1838 ft | 218 kts | 135° |
| 2026-05-04 07:41 | -33.64181 | 150.91534 | 2493 ft | 217 kts | 92° |
| 2026-05-04 07:41 | -33.64256 | 150.93340 | 3273 ft | 229 kts | 98° |
| 2026-05-04 07:41 | -33.64905 | 150.95165 | 3758 ft | 254 kts | 121° |
| 2026-05-04 07:42 | -33.66190 | 150.96704 | 4233 ft | 274 kts | 143° |
| 2026-05-04 07:42 | -33.67874 | 150.98033 | 4263 ft | 300 kts | 147° |
| 2026-05-04 07:42 | -33.69603 | 150.99393 | 4395 ft | 290 kts | 146° |
| 2026-05-04 07:42 | -33.71192 | 151.00695 | 4466 ft | 267 kts | 144° |
| 2026-05-04 07:43 | -33.72655 | 151.01969 | 4480 ft | 253 kts | 142° |
| 2026-05-04 07:43 | -33.73968 | 151.03205 | 4796 ft | 228 kts | 140° |
| 2026-05-04 07:43 | -33.75223 | 151.04295 | 4833 ft | 222 kts | 152° |
| 2026-05-04 07:43 | -33.76642 | 151.04996 | 4837 ft | 216 kts | 168° |
| 2026-05-04 07:44 | -33.78120 | 151.05385 | 5188 ft | 219 kts | 173° |
| 2026-05-04 07:44 | -33.79619 | 151.05746 | 5636 ft | 219 kts | 172° |
| 2026-05-04 07:44 | -33.81107 | 151.06124 | 6133 ft | 217 kts | 172° |
| 2026-05-04 07:44 | -33.82624 | 151.06532 | 6134 ft | 242 kts | 171° |
| 2026-05-04 07:45 | -33.84317 | 151.06987 | 5981 ft | 254 kts | 171° |
| 2026-05-04 07:45 | -33.86031 | 151.07458 | 5982 ft | 252 kts | 170° |
| 2026-05-04 07:45 | -33.87725 | 151.07927 | 5922 ft | 254 kts | 171° |
| 2026-05-04 07:45 | -33.89438 | 151.08363 | 6002 ft | 249 kts | 172° |
| 2026-05-04 07:46 | -33.91164 | 151.08810 | 6019 ft | 247 kts | 172° |
| 2026-05-04 07:46 | -33.92833 | 151.09248 | 5932 ft | 251 kts | 172° |
| 2026-05-04 07:46 | -33.94538 | 151.09661 | 5995 ft | 248 kts | 173° |
| 2026-05-04 07:46 | -33.96221 | 151.10077 | 6000 ft | 247 kts | 172° |
| 2026-05-04 07:47 | -33.97898 | 151.10503 | 5946 ft | 244 kts | 172° |
| 2026-05-04 07:47 | -33.99539 | 151.10940 | 5922 ft | 240 kts | 171° |
| 2026-05-04 07:47 | -34.01160 | 151.11393 | 5913 ft | 236 kts | 171° |
| 2026-05-04 07:49 | -34.11626 | 151.14566 | 4500 ft | 217 kts | 168° |
| 2026-05-04 07:49 | -34.13091 | 151.15033 | 4216 ft | 217 kts | 169° |
| 2026-05-04 07:49 | -34.14556 | 151.15487 | 3935 ft | 217 kts | 168° |
| 2026-05-04 07:50 | -34.16021 | 151.15928 | 3667 ft | 216 kts | 169° |
| 2026-05-04 07:50 | -34.17340 | 151.16767 | 3322 ft | 220 kts | 130° |
| 2026-05-04 07:50 | -34.17931 | 151.18373 | 3155 ft | 202 kts | 86° |
| 2026-05-04 07:50 | -34.17591 | 151.19862 | 3129 ft | 176 kts | 58° |
| 2026-05-04 07:51 | -34.16985 | 151.21165 | 2920 ft | 188 kts | 37° |
| 2026-05-04 07:51 | -34.15799 | 151.21866 | 2947 ft | 208 kts | 6° |
| 2026-05-04 07:51 | -34.14302 | 151.22077 | 3064 ft | 223 kts | 1° |
| 2026-05-04 07:51 | -34.12711 | 151.22164 | 3112 ft | 234 kts | 356° |
| 2026-05-04 07:52 | -34.11092 | 151.21887 | 2901 ft | 226 kts | 346° |
| 2026-05-04 07:52 | -34.09565 | 151.21475 | 2679 ft | 223 kts | 347° |
| 2026-05-04 07:52 | -34.08070 | 151.21088 | 2373 ft | 217 kts | 347° |
| 2026-05-04 07:52 | -34.06619 | 151.20717 | 2070 ft | 208 kts | 348° |
| 2026-05-04 07:53 | -34.05273 | 151.20367 | 1829 ft | 189 kts | 348° |
| 2026-05-04 07:54 | -33.98732 | 151.18667 | 517 ft | 140 kts | 351° |
| 2026-05-04 07:55 | -33.97760 | 151.18416 | 310 ft | 150 kts | 351° |
| 2026-05-04 07:55 | -33.96788 | 151.18160 | 103 ft | 134 kts | 349° |
| 2026-05-04 07:55 | -33.95968 | 151.17946 | 29 ft | 109 kts | 348° |
| 2026-05-04 07:55 | -33.95274 | 151.17767 | 28 ft | 116 kts | 347° |
| 2026-05-04 07:56 | -33.94286 | 151.17510 | 213 ft | 171 kts | 350° |
| 2026-05-04 07:56 | -33.93009 | 151.17198 | 655 ft | 200 kts | 351° |
| 2026-05-04 07:56 | -33.91591 | 151.16790 | 1095 ft | 222 kts | 342° |
| 2026-05-04 07:56 | -33.90218 | 151.15798 | 1517 ft | 239 kts | 323° |
| 2026-05-04 07:57 | -33.89081 | 151.14317 | 2044 ft | 242 kts | 315° |
| 2026-05-04 07:57 | -33.87949 | 151.12844 | 2645 ft | 238 kts | 315° |
| 2026-05-04 07:57 | -33.86809 | 151.11409 | 3010 ft | 239 kts | 316° |
| 2026-05-04 07:57 | -33.85636 | 151.09980 | 3368 ft | 240 kts | 316° |
| 2026-05-04 07:58 | -33.84454 | 151.08579 | 3864 ft | 239 kts | 317° |
| 2026-05-04 07:58 | -33.83261 | 151.07171 | 4219 ft | 242 kts | 316° |
| 2026-05-04 07:58 | -33.82073 | 151.05754 | 4421 ft | 235 kts | 317° |
| 2026-05-04 07:58 | -33.80918 | 151.04391 | 4649 ft | 230 kts | 317° |
| 2026-05-04 07:59 | -33.79766 | 151.03045 | 4748 ft | 233 kts | 317° |
| 2026-05-04 07:59 | -33.78607 | 151.01691 | 4932 ft | 231 kts | 317° |
| 2026-05-04 07:59 | -33.77467 | 151.00375 | 5040 ft | 234 kts | 317° |
| 2026-05-04 07:59 | -33.76311 | 150.99057 | 4932 ft | 219 kts | 317° |
| 2026-05-04 08:00 | -33.75260 | 150.97860 | 4932 ft | 202 kts | 318° |
| 2026-05-04 08:00 | -33.74287 | 150.96752 | 5030 ft | 185 kts | 318° |
| 2026-05-04 08:00 | -33.73377 | 150.95717 | 5005 ft | 177 kts | 318° |
| 2026-05-04 08:02 | -33.67070 | 150.88773 | 4899 ft | 188 kts | 320° |
| 2026-05-04 08:02 | -33.66143 | 150.87787 | 4716 ft | 171 kts | 320° |
| 2026-05-04 08:02 | -33.65269 | 150.86854 | 4344 ft | 165 kts | 320° |
| 2026-05-04 08:03 | -33.64423 | 150.85939 | 3960 ft | 162 kts | 320° |
| 2026-05-04 08:03 | -33.63624 | 150.84999 | 3545 ft | 162 kts | 314° |
| 2026-05-04 08:03 | -33.62903 | 150.83949 | 3092 ft | 164 kts | 312° |
| 2026-05-04 08:03 | -33.62436 | 150.83234 | 2805 ft | 164 kts | 311° |
| 2026-05-04 08:04 | -33.61569 | 150.81725 | 2239 ft | 166 kts | 302° |
| 2026-05-04 08:04 | -33.61245 | 150.80884 | 1922 ft | 169 kts | 296° |
| 2026-05-04 08:04 | -33.60831 | 150.79565 | 1518 ft | 168 kts | 292° |
| 2026-05-04 08:04 | -33.61252 | 150.77712 | 1451 ft | 203 kts | 222° |
| 2026-05-04 08:05 | -33.62155 | 150.77309 | 1495 ft | 214 kts | 180° |
| 2026-05-04 08:05 | -33.63523 | 150.77823 | 1352 ft | 199 kts | 141° |
| 2026-05-04 08:05 | -33.64289 | 150.78994 | 1360 ft | 162 kts | 104° |
| 2026-05-04 08:05 | -33.64202 | 150.80195 | 1324 ft | 146 kts | 53° |
| 2026-05-04 08:06 | -33.63426 | 150.80835 | 1297 ft | 132 kts | 11° |
| 2026-05-04 08:06 | -33.62504 | 150.81017 | 1090 ft | 130 kts | 7° |
| 2026-05-04 08:06 | -33.61628 | 150.80977 | 857 ft | 130 kts | 340° |
| 2026-05-04 08:06 | -33.61013 | 150.80193 | 465 ft | 134 kts | 300° |
| 2026-05-04 08:08 | -33.60417 | 150.78562 | 59 ft | 18 kts | 107° |
| 2026-05-04 08:08 | -33.60452 | 150.78707 | 61 ft | 9 kts | 98° |